sensor_id;sensor_type;location;lat;lon;timestamp;temperature;humidity
15111;DHT22;7656;51.954;7.998;2024-02-16T00:00:50;10.30;99.90
15111;DHT22;7656;51.954;7.998;2024-02-16T00:05:11;10.30;99.90
15111;DHT22;7656;51.954;7.998;2024-02-16T00:09:33;10.30;99.90
15111;DHT22;7656;51.954;7.998;2024-02-16T00:13:54;10.20;99.90
15111;DHT22;7656;51.954;7.998;2024-02-16T00:18:15;10.20;99.90
15111;DHT22;7656;51.954;7.998;2024-02-16T00:22:36;10.10;99.90
15111;DHT22;7656;51.954;7.998;2024-02-16T00:26:57;10.10;99.90
15111;DHT22;7656;51.954;7.998;2024-02-16T00:31:18;10.00;99.90
15111;DHT22;7656;51.954;7.998;2024-02-16T00:35:40;10.00;99.90
15111;DHT22;7656;51.954;7.998;2024-02-16T00:40:01;10.00;99.90
15111;DHT22;7656;51.954;7.998;2024-02-16T00:44:22;10.20;99.90
15111;DHT22;7656;51.954;7.998;2024-02-16T00:48:44;10.30;99.90
15111;DHT22;7656;51.954;7.998;2024-02-16T00:53:06;10.50;99.90
15111;DHT22;7656;51.954;7.998;2024-02-16T00:57:27;10.60;99.90
15111;DHT22;7656;51.954;7.998;2024-02-16T01:01:48;10.30;99.90
15111;DHT22;7656;51.954;7.998;2024-02-16T01:06:09;10.00;99.90
15111;DHT22;7656;51.954;7.998;2024-02-16T01:10:31;9.90;99.90
15111;DHT22;7656;51.954;7.998;2024-02-16T01:14:52;10.00;99.90
15111;DHT22;7656;51.954;7.998;2024-02-16T01:19:13;10.00;99.90
15111;DHT22;7656;51.954;7.998;2024-02-16T01:23:34;10.10;99.90
15111;DHT22;7656;51.954;7.998;2024-02-16T01:27:55;10.20;99.90
15111;DHT22;7656;51.954;7.998;2024-02-16T01:32:16;10.20;99.90
15111;DHT22;7656;51.954;7.998;2024-02-16T01:36:37;10.20;99.90
15111;DHT22;7656;51.954;7.998;2024-02-16T01:40:58;10.40;99.90
15111;DHT22;7656;51.954;7.998;2024-02-16T01:45:19;10.30;99.90
15111;DHT22;7656;51.954;7.998;2024-02-16T01:49:40;10.10;99.90
15111;DHT22;7656;51.954;7.998;2024-02-16T01:54:01;10.00;99.90
15111;DHT22;7656;51.954;7.998;2024-02-16T01:58:22;10.10;99.90
15111;DHT22;7656;51.954;7.998;2024-02-16T02:02:45;10.20;99.90
15111;DHT22;7656;51.954;7.998;2024-02-16T02:07:14;10.60;99.90
15111;DHT22;7656;51.954;7.998;2024-02-16T02:11:35;10.60;99.90
15111;DHT22;7656;51.954;7.998;2024-02-16T02:15:58;10.40;99.90
15111;DHT22;7656;51.954;7.998;2024-02-16T02:20:20;10.20;99.90
15111;DHT22;7656;51.954;7.998;2024-02-16T02:24:41;10.10;99.90
15111;DHT22;7656;51.954;7.998;2024-02-16T02:29:02;9.90;99.90
15111;DHT22;7656;51.954;7.998;2024-02-16T02:33:23;9.80;99.90
15111;DHT22;7656;51.954;7.998;2024-02-16T02:37:45;9.80;99.90
15111;DHT22;7656;51.954;7.998;2024-02-16T02:42:06;10.00;99.90
15111;DHT22;7656;51.954;7.998;2024-02-16T02:46:29;9.80;99.90
15111;DHT22;7656;51.954;7.998;2024-02-16T02:50:50;9.60;99.90
15111;DHT22;7656;51.954;7.998;2024-02-16T02:55:11;9.50;99.90
15111;DHT22;7656;51.954;7.998;2024-02-16T02:59:32;9.70;99.90
15111;DHT22;7656;51.954;7.998;2024-02-16T03:03:53;10.00;99.90
15111;DHT22;7656;51.954;7.998;2024-02-16T03:08:14;10.40;99.90
15111;DHT22;7656;51.954;7.998;2024-02-16T03:12:35;10.30;99.90
15111;DHT22;7656;51.954;7.998;2024-02-16T03:16:56;10.10;99.90
15111;DHT22;7656;51.954;7.998;2024-02-16T03:21:17;10.10;99.90
15111;DHT22;7656;51.954;7.998;2024-02-16T03:25:38;10.10;99.90
15111;DHT22;7656;51.954;7.998;2024-02-16T03:30:00;10.30;99.90
15111;DHT22;7656;51.954;7.998;2024-02-16T03:34:21;10.30;99.90
15111;DHT22;7656;51.954;7.998;2024-02-16T03:38:43;10.40;99.90
15111;DHT22;7656;51.954;7.998;2024-02-16T03:43:04;10.10;99.90
15111;DHT22;7656;51.954;7.998;2024-02-16T03:47:25;10.00;99.90
15111;DHT22;7656;51.954;7.998;2024-02-16T03:51:46;9.70;99.90
15111;DHT22;7656;51.954;7.998;2024-02-16T03:56:08;9.80;99.90
15111;DHT22;7656;51.954;7.998;2024-02-16T04:00:29;9.80;99.90
15111;DHT22;7656;51.954;7.998;2024-02-16T04:04:50;9.90;99.90
15111;DHT22;7656;51.954;7.998;2024-02-16T04:09:11;9.90;99.90
15111;DHT22;7656;51.954;7.998;2024-02-16T04:13:32;10.20;99.90
15111;DHT22;7656;51.954;7.998;2024-02-16T04:17:54;10.30;99.90
15111;DHT22;7656;51.954;7.998;2024-02-16T04:22:15;10.20;99.90
15111;DHT22;7656;51.954;7.998;2024-02-16T04:26:36;10.40;99.90
15111;DHT22;7656;51.954;7.998;2024-02-16T04:30:57;10.40;99.90
15111;DHT22;7656;51.954;7.998;2024-02-16T04:35:18;10.30;99.90
15111;DHT22;7656;51.954;7.998;2024-02-16T04:39:40;10.10;99.90
15111;DHT22;7656;51.954;7.998;2024-02-16T04:44:01;10.20;99.90
15111;DHT22;7656;51.954;7.998;2024-02-16T04:48:22;10.30;99.90
15111;DHT22;7656;51.954;7.998;2024-02-16T04:52:43;10.40;99.90
15111;DHT22;7656;51.954;7.998;2024-02-16T04:57:04;10.60;99.90
15111;DHT22;7656;51.954;7.998;2024-02-16T05:01:25;10.70;99.90
15111;DHT22;7656;51.954;7.998;2024-02-16T05:05:49;10.70;99.90
15111;DHT22;7656;51.954;7.998;2024-02-16T05:10:10;10.50;99.90
15111;DHT22;7656;51.954;7.998;2024-02-16T05:14:31;10.10;99.90
15111;DHT22;7656;51.954;7.998;2024-02-16T05:18:52;10.20;99.90
15111;DHT22;7656;51.954;7.998;2024-02-16T05:23:13;10.40;99.90
15111;DHT22;7656;51.954;7.998;2024-02-16T05:27:34;10.60;99.90
15111;DHT22;7656;51.954;7.998;2024-02-16T05:31:56;10.70;99.90
15111;DHT22;7656;51.954;7.998;2024-02-16T05:36:20;10.30;99.90
15111;DHT22;7656;51.954;7.998;2024-02-16T05:40:45;10.30;99.90
15111;DHT22;7656;51.954;7.998;2024-02-16T05:45:14;10.50;99.90
15111;DHT22;7656;51.954;7.998;2024-02-16T05:49:35;10.60;99.90
15111;DHT22;7656;51.954;7.998;2024-02-16T05:53:56;10.50;99.90
15111;DHT22;7656;51.954;7.998;2024-02-16T05:58:19;10.70;99.90
15111;DHT22;7656;51.954;7.998;2024-02-16T06:02:42;10.90;99.90
15111;DHT22;7656;51.954;7.998;2024-02-16T06:07:03;10.80;99.90
15111;DHT22;7656;51.954;7.998;2024-02-16T06:11:25;10.70;99.90
15111;DHT22;7656;51.954;7.998;2024-02-16T06:15:47;10.80;99.90
15111;DHT22;7656;51.954;7.998;2024-02-16T06:20:08;10.90;99.90
15111;DHT22;7656;51.954;7.998;2024-02-16T06:24:30;10.90;99.90
15111;DHT22;7656;51.954;7.998;2024-02-16T06:28:51;10.80;99.90
15111;DHT22;7656;51.954;7.998;2024-02-16T06:33:12;10.80;99.90
15111;DHT22;7656;51.954;7.998;2024-02-16T06:37:34;10.80;99.90
15111;DHT22;7656;51.954;7.998;2024-02-16T06:41:55;10.60;99.90
15111;DHT22;7656;51.954;7.998;2024-02-16T06:46:16;10.60;99.90
15111;DHT22;7656;51.954;7.998;2024-02-16T06:50:37;10.70;99.90
15111;DHT22;7656;51.954;7.998;2024-02-16T06:54:58;10.60;99.90
15111;DHT22;7656;51.954;7.998;2024-02-16T06:59:20;10.50;99.90
15111;DHT22;7656;51.954;7.998;2024-02-16T07:03:43;10.40;99.90
15111;DHT22;7656;51.954;7.998;2024-02-16T07:08:04;10.50;99.90
15111;DHT22;7656;51.954;7.998;2024-02-16T07:12:27;10.40;99.90
15111;DHT22;7656;51.954;7.998;2024-02-16T07:16:48;10.40;99.90
15111;DHT22;7656;51.954;7.998;2024-02-16T07:21:09;10.30;99.90
15111;DHT22;7656;51.954;7.998;2024-02-16T07:25:30;10.40;99.90
15111;DHT22;7656;51.954;7.998;2024-02-16T07:29:51;10.60;99.90
15111;DHT22;7656;51.954;7.998;2024-02-16T07:34:12;10.70;99.90
15111;DHT22;7656;51.954;7.998;2024-02-16T07:38:33;10.80;99.90
15111;DHT22;7656;51.954;7.998;2024-02-16T07:42:54;11.20;99.90
15111;DHT22;7656;51.954;7.998;2024-02-16T07:47:15;11.40;99.90
15111;DHT22;7656;51.954;7.998;2024-02-16T07:51:36;11.60;99.90
15111;DHT22;7656;51.954;7.998;2024-02-16T07:55:58;11.70;99.90
15111;DHT22;7656;51.954;7.998;2024-02-16T08:00:19;12.20;99.90
15111;DHT22;7656;51.954;7.998;2024-02-16T08:04:41;12.30;99.90
15111;DHT22;7656;51.954;7.998;2024-02-16T08:09:03;12.40;99.90
15111;DHT22;7656;51.954;7.998;2024-02-16T08:13:24;12.60;99.90
15111;DHT22;7656;51.954;7.998;2024-02-16T08:17:45;12.70;99.90
15111;DHT22;7656;51.954;7.998;2024-02-16T08:22:08;12.90;99.90
15111;DHT22;7656;51.954;7.998;2024-02-16T08:26:29;13.20;99.90
15111;DHT22;7656;51.954;7.998;2024-02-16T08:30:50;13.50;99.90
15111;DHT22;7656;51.954;7.998;2024-02-16T08:35:11;13.90;99.90
15111;DHT22;7656;51.954;7.998;2024-02-16T08:39:37;15.00;99.90
15111;DHT22;7656;51.954;7.998;2024-02-16T08:43:59;15.30;99.90
15111;DHT22;7656;51.954;7.998;2024-02-16T08:48:20;15.60;99.90
15111;DHT22;7656;51.954;7.998;2024-02-16T08:52:41;15.80;99.90
15111;DHT22;7656;51.954;7.998;2024-02-16T08:57:02;15.80;99.90
15111;DHT22;7656;51.954;7.998;2024-02-16T09:01:37;15.70;99.90
15111;DHT22;7656;51.954;7.998;2024-02-16T09:06:00;15.90;99.90
15111;DHT22;7656;51.954;7.998;2024-02-16T09:10:22;15.80;99.90
15111;DHT22;7656;51.954;7.998;2024-02-16T09:14:43;15.70;99.90
15111;DHT22;7656;51.954;7.998;2024-02-16T09:19:04;15.60;99.90
15111;DHT22;7656;51.954;7.998;2024-02-16T09:23:26;15.50;99.90
15111;DHT22;7656;51.954;7.998;2024-02-16T09:27:47;15.40;99.90
15111;DHT22;7656;51.954;7.998;2024-02-16T09:32:09;15.50;99.90
15111;DHT22;7656;51.954;7.998;2024-02-16T09:36:30;15.40;99.90
15111;DHT22;7656;51.954;7.998;2024-02-16T09:40:51;15.20;99.90
15111;DHT22;7656;51.954;7.998;2024-02-16T09:45:14;15.20;99.90
15111;DHT22;7656;51.954;7.998;2024-02-16T09:49:36;15.10;99.90
15111;DHT22;7656;51.954;7.998;2024-02-16T09:53:57;15.20;99.90
15111;DHT22;7656;51.954;7.998;2024-02-16T09:58:18;15.10;99.90
15111;DHT22;7656;51.954;7.998;2024-02-16T10:02:44;15.30;99.90
15111;DHT22;7656;51.954;7.998;2024-02-16T10:07:09;15.10;99.90
15111;DHT22;7656;51.954;7.998;2024-02-16T10:11:30;15.50;99.90
15111;DHT22;7656;51.954;7.998;2024-02-16T10:15:51;15.80;99.90
15111;DHT22;7656;51.954;7.998;2024-02-16T10:20:18;15.90;99.90
15111;DHT22;7656;51.954;7.998;2024-02-16T10:24:40;16.00;99.90
15111;DHT22;7656;51.954;7.998;2024-02-16T10:29:04;16.00;99.90
15111;DHT22;7656;51.954;7.998;2024-02-16T10:33:37;15.90;99.90
15111;DHT22;7656;51.954;7.998;2024-02-16T10:38:04;15.90;99.90
15111;DHT22;7656;51.954;7.998;2024-02-16T10:42:31;16.10;99.90
15111;DHT22;7656;51.954;7.998;2024-02-16T10:46:55;15.80;99.90
15111;DHT22;7656;51.954;7.998;2024-02-16T10:51:20;15.70;99.90
15111;DHT22;7656;51.954;7.998;2024-02-16T10:55:44;15.80;99.90
15111;DHT22;7656;51.954;7.998;2024-02-16T11:00:09;15.80;99.90
15111;DHT22;7656;51.954;7.998;2024-02-16T11:04:37;15.80;99.90
15111;DHT22;7656;51.954;7.998;2024-02-16T11:09:02;16.00;99.90
15111;DHT22;7656;51.954;7.998;2024-02-16T11:13:36;16.20;99.90
15111;DHT22;7656;51.954;7.998;2024-02-16T11:18:00;16.00;99.90
15111;DHT22;7656;51.954;7.998;2024-02-16T11:22:22;16.10;99.90
15111;DHT22;7656;51.954;7.998;2024-02-16T11:26:48;16.00;99.90
15111;DHT22;7656;51.954;7.998;2024-02-16T11:31:10;16.20;99.90
15111;DHT22;7656;51.954;7.998;2024-02-16T11:35:31;16.10;99.90
15111;DHT22;7656;51.954;7.998;2024-02-16T11:39:55;16.00;99.90
15111;DHT22;7656;51.954;7.998;2024-02-16T11:44:17;15.90;99.90
15111;DHT22;7656;51.954;7.998;2024-02-16T11:48:38;16.10;99.90
15111;DHT22;7656;51.954;7.998;2024-02-16T11:52:59;16.10;99.90
15111;DHT22;7656;51.954;7.998;2024-02-16T11:57:21;16.00;99.90
15111;DHT22;7656;51.954;7.998;2024-02-16T12:01:57;16.10;99.90
15111;DHT22;7656;51.954;7.998;2024-02-16T12:06:22;16.00;99.90
15111;DHT22;7656;51.954;7.998;2024-02-16T12:10:43;16.10;99.90
15111;DHT22;7656;51.954;7.998;2024-02-16T12:15:05;16.10;99.90
15111;DHT22;7656;51.954;7.998;2024-02-16T12:19:28;16.10;99.90
15111;DHT22;7656;51.954;7.998;2024-02-16T12:23:49;16.00;99.90
15111;DHT22;7656;51.954;7.998;2024-02-16T12:28:10;15.90;99.90
15111;DHT22;7656;51.954;7.998;2024-02-16T12:32:31;15.90;99.90
15111;DHT22;7656;51.954;7.998;2024-02-16T12:36:52;15.80;99.90
15111;DHT22;7656;51.954;7.998;2024-02-16T12:41:13;15.80;99.90
15111;DHT22;7656;51.954;7.998;2024-02-16T12:45:34;15.70;99.90
15111;DHT22;7656;51.954;7.998;2024-02-16T12:49:56;15.60;99.90
15111;DHT22;7656;51.954;7.998;2024-02-16T12:54:18;15.50;99.90
15111;DHT22;7656;51.954;7.998;2024-02-16T12:58:39;15.60;99.90
15111;DHT22;7656;51.954;7.998;2024-02-16T13:03:00;15.50;99.90
15111;DHT22;7656;51.954;7.998;2024-02-16T13:07:22;15.50;99.90
15111;DHT22;7656;51.954;7.998;2024-02-16T13:11:44;15.60;99.90
15111;DHT22;7656;51.954;7.998;2024-02-16T13:16:06;15.70;99.90
15111;DHT22;7656;51.954;7.998;2024-02-16T13:20:27;15.70;99.90
15111;DHT22;7656;51.954;7.998;2024-02-16T13:24:48;15.60;99.90
15111;DHT22;7656;51.954;7.998;2024-02-16T13:29:09;15.80;99.90
15111;DHT22;7656;51.954;7.998;2024-02-16T13:33:30;15.60;99.90
15111;DHT22;7656;51.954;7.998;2024-02-16T13:37:51;15.50;99.90
15111;DHT22;7656;51.954;7.998;2024-02-16T13:42:13;15.50;99.90
15111;DHT22;7656;51.954;7.998;2024-02-16T13:46:34;15.50;99.90
15111;DHT22;7656;51.954;7.998;2024-02-16T13:50:56;15.30;99.90
15111;DHT22;7656;51.954;7.998;2024-02-16T13:55:17;15.40;99.90
15111;DHT22;7656;51.954;7.998;2024-02-16T13:59:38;15.30;99.90
15111;DHT22;7656;51.954;7.998;2024-02-16T14:04:00;15.30;99.90
15111;DHT22;7656;51.954;7.998;2024-02-16T14:08:22;15.50;99.90
15111;DHT22;7656;51.954;7.998;2024-02-16T14:12:45;15.50;99.90
15111;DHT22;7656;51.954;7.998;2024-02-16T14:17:07;15.40;99.90
15111;DHT22;7656;51.954;7.998;2024-02-16T14:21:29;15.40;99.90
15111;DHT22;7656;51.954;7.998;2024-02-16T14:25:50;15.30;99.90
15111;DHT22;7656;51.954;7.998;2024-02-16T14:30:12;15.20;99.90
15111;DHT22;7656;51.954;7.998;2024-02-16T14:34:33;15.10;99.90
15111;DHT22;7656;51.954;7.998;2024-02-16T14:38:54;15.10;99.90
15111;DHT22;7656;51.954;7.998;2024-02-16T14:43:15;15.00;99.90
15111;DHT22;7656;51.954;7.998;2024-02-16T14:47:36;14.80;99.90
15111;DHT22;7656;51.954;7.998;2024-02-16T14:51:58;14.70;99.90
15111;DHT22;7656;51.954;7.998;2024-02-16T14:56:19;14.40;99.90
15111;DHT22;7656;51.954;7.998;2024-02-16T15:00:42;14.30;99.90
15111;DHT22;7656;51.954;7.998;2024-02-16T15:05:06;14.40;99.90
15111;DHT22;7656;51.954;7.998;2024-02-16T15:09:28;14.40;99.90
15111;DHT22;7656;51.954;7.998;2024-02-16T15:13:49;14.20;99.90
15111;DHT22;7656;51.954;7.998;2024-02-16T15:18:10;14.30;99.90
15111;DHT22;7656;51.954;7.998;2024-02-16T15:22:32;14.20;99.90
15111;DHT22;7656;51.954;7.998;2024-02-16T15:26:53;14.10;99.90
15111;DHT22;7656;51.954;7.998;2024-02-16T15:31:14;14.10;99.90
15111;DHT22;7656;51.954;7.998;2024-02-16T15:35:36;14.00;99.90
15111;DHT22;7656;51.954;7.998;2024-02-16T15:39:57;13.90;99.90
15111;DHT22;7656;51.954;7.998;2024-02-16T15:44:19;14.10;99.90
15111;DHT22;7656;51.954;7.998;2024-02-16T15:48:40;14.10;99.90
15111;DHT22;7656;51.954;7.998;2024-02-16T15:53:03;14.20;99.90
15111;DHT22;7656;51.954;7.998;2024-02-16T15:57:24;14.20;99.90
15111;DHT22;7656;51.954;7.998;2024-02-16T16:01:45;14.00;99.90
15111;DHT22;7656;51.954;7.998;2024-02-16T16:06:07;14.10;99.90
15111;DHT22;7656;51.954;7.998;2024-02-16T16:10:28;14.10;99.90
15111;DHT22;7656;51.954;7.998;2024-02-16T16:14:50;13.90;99.90
15111;DHT22;7656;51.954;7.998;2024-02-16T16:23:33;13.90;99.90
15111;DHT22;7656;51.954;7.998;2024-02-16T16:27:56;13.90;99.90
15111;DHT22;7656;51.954;7.998;2024-02-16T16:32:17;13.90;99.90
15111;DHT22;7656;51.954;7.998;2024-02-16T16:36:38;13.90;99.90
15111;DHT22;7656;51.954;7.998;2024-02-16T16:41:00;13.90;99.90
15111;DHT22;7656;51.954;7.998;2024-02-16T16:45:22;13.90;99.90
15111;DHT22;7656;51.954;7.998;2024-02-16T16:49:44;14.00;99.90
15111;DHT22;7656;51.954;7.998;2024-02-16T16:54:06;13.90;99.90
15111;DHT22;7656;51.954;7.998;2024-02-16T16:58:27;13.90;99.90
15111;DHT22;7656;51.954;7.998;2024-02-16T17:02:49;13.80;99.90
15111;DHT22;7656;51.954;7.998;2024-02-16T17:07:10;13.80;99.90
15111;DHT22;7656;51.954;7.998;2024-02-16T17:11:32;13.90;99.90
15111;DHT22;7656;51.954;7.998;2024-02-16T17:15:54;14.00;99.90
15111;DHT22;7656;51.954;7.998;2024-02-16T17:20:15;13.90;99.90
15111;DHT22;7656;51.954;7.998;2024-02-16T17:24:36;13.90;99.90
15111;DHT22;7656;51.954;7.998;2024-02-16T17:28:57;13.90;99.90
15111;DHT22;7656;51.954;7.998;2024-02-16T17:33:18;13.60;99.90
15111;DHT22;7656;51.954;7.998;2024-02-16T17:37:40;13.30;99.90
15111;DHT22;7656;51.954;7.998;2024-02-16T17:42:04;13.30;99.90
15111;DHT22;7656;51.954;7.998;2024-02-16T17:46:27;13.30;99.90
15111;DHT22;7656;51.954;7.998;2024-02-16T17:50:48;13.10;99.90
15111;DHT22;7656;51.954;7.998;2024-02-16T17:55:09;12.90;99.90
15111;DHT22;7656;51.954;7.998;2024-02-16T17:59:30;12.80;99.90
15111;DHT22;7656;51.954;7.998;2024-02-16T18:03:51;12.80;99.90
15111;DHT22;7656;51.954;7.998;2024-02-16T18:08:12;12.90;99.90
15111;DHT22;7656;51.954;7.998;2024-02-16T18:12:35;13.00;99.90
15111;DHT22;7656;51.954;7.998;2024-02-16T18:16:56;13.20;99.90
15111;DHT22;7656;51.954;7.998;2024-02-16T18:21:18;13.20;99.90
15111;DHT22;7656;51.954;7.998;2024-02-16T18:25:39;13.30;99.90
15111;DHT22;7656;51.954;7.998;2024-02-16T18:30:00;13.40;99.90
15111;DHT22;7656;51.954;7.998;2024-02-16T18:34:21;13.40;99.90
15111;DHT22;7656;51.954;7.998;2024-02-16T18:38:43;13.50;99.90
15111;DHT22;7656;51.954;7.998;2024-02-16T18:43:05;13.50;99.90
15111;DHT22;7656;51.954;7.998;2024-02-16T18:47:27;13.40;99.90
15111;DHT22;7656;51.954;7.998;2024-02-16T18:51:48;13.40;99.90
15111;DHT22;7656;51.954;7.998;2024-02-16T18:56:10;13.40;99.90
15111;DHT22;7656;51.954;7.998;2024-02-16T19:00:31;13.50;99.90
15111;DHT22;7656;51.954;7.998;2024-02-16T19:04:52;13.50;99.90
15111;DHT22;7656;51.954;7.998;2024-02-16T19:09:13;13.50;99.90
15111;DHT22;7656;51.954;7.998;2024-02-16T19:13:34;13.50;99.90
15111;DHT22;7656;51.954;7.998;2024-02-16T19:17:56;13.30;99.90
15111;DHT22;7656;51.954;7.998;2024-02-16T19:22:17;13.20;99.90
15111;DHT22;7656;51.954;7.998;2024-02-16T19:26:38;13.20;99.90
15111;DHT22;7656;51.954;7.998;2024-02-16T19:31:00;13.10;99.90
15111;DHT22;7656;51.954;7.998;2024-02-16T19:35:22;13.10;99.90
15111;DHT22;7656;51.954;7.998;2024-02-16T19:39:43;13.10;99.90
15111;DHT22;7656;51.954;7.998;2024-02-16T19:44:04;13.10;99.90
15111;DHT22;7656;51.954;7.998;2024-02-16T19:48:25;13.20;99.90
15111;DHT22;7656;51.954;7.998;2024-02-16T19:52:46;13.30;99.90
15111;DHT22;7656;51.954;7.998;2024-02-16T19:57:08;13.20;99.90
15111;DHT22;7656;51.954;7.998;2024-02-16T20:01:29;13.20;99.90
15111;DHT22;7656;51.954;7.998;2024-02-16T20:05:50;13.30;99.90
15111;DHT22;7656;51.954;7.998;2024-02-16T20:10:13;13.20;99.90
15111;DHT22;7656;51.954;7.998;2024-02-16T20:14:35;13.10;99.90
15111;DHT22;7656;51.954;7.998;2024-02-16T20:18:57;13.10;99.90
15111;DHT22;7656;51.954;7.998;2024-02-16T20:23:18;13.10;99.90
15111;DHT22;7656;51.954;7.998;2024-02-16T20:27:41;13.20;99.90
15111;DHT22;7656;51.954;7.998;2024-02-16T20:32:03;13.10;99.90
15111;DHT22;7656;51.954;7.998;2024-02-16T20:36:25;13.20;99.90
15111;DHT22;7656;51.954;7.998;2024-02-16T20:40:46;13.30;99.90
15111;DHT22;7656;51.954;7.998;2024-02-16T20:45:08;13.30;99.90
15111;DHT22;7656;51.954;7.998;2024-02-16T20:49:30;13.30;99.90
15111;DHT22;7656;51.954;7.998;2024-02-16T20:53:51;13.20;99.90
15111;DHT22;7656;51.954;7.998;2024-02-16T20:58:12;13.20;99.90
15111;DHT22;7656;51.954;7.998;2024-02-16T21:02:34;13.20;99.90
15111;DHT22;7656;51.954;7.998;2024-02-16T21:06:55;13.10;99.90
15111;DHT22;7656;51.954;7.998;2024-02-16T21:11:16;13.10;99.90
15111;DHT22;7656;51.954;7.998;2024-02-16T21:15:37;13.20;99.90
15111;DHT22;7656;51.954;7.998;2024-02-16T21:19:58;13.20;99.90
15111;DHT22;7656;51.954;7.998;2024-02-16T21:24:19;13.10;99.90
15111;DHT22;7656;51.954;7.998;2024-02-16T21:28:43;13.00;99.90
15111;DHT22;7656;51.954;7.998;2024-02-16T21:33:04;12.90;99.90
15111;DHT22;7656;51.954;7.998;2024-02-16T21:37:27;13.00;99.90
15111;DHT22;7656;51.954;7.998;2024-02-16T21:41:50;12.80;99.90
15111;DHT22;7656;51.954;7.998;2024-02-16T21:46:11;12.80;99.90
15111;DHT22;7656;51.954;7.998;2024-02-16T21:50:36;12.80;99.90
15111;DHT22;7656;51.954;7.998;2024-02-16T21:54:57;12.80;99.90
15111;DHT22;7656;51.954;7.998;2024-02-16T21:59:18;12.80;99.90
15111;DHT22;7656;51.954;7.998;2024-02-16T22:03:39;12.80;99.90
15111;DHT22;7656;51.954;7.998;2024-02-16T22:08:00;12.70;99.90
15111;DHT22;7656;51.954;7.998;2024-02-16T22:12:21;12.70;99.90
15111;DHT22;7656;51.954;7.998;2024-02-16T22:16:42;12.80;99.90
15111;DHT22;7656;51.954;7.998;2024-02-16T22:21:03;12.70;99.90
15111;DHT22;7656;51.954;7.998;2024-02-16T22:25:24;12.70;99.90
15111;DHT22;7656;51.954;7.998;2024-02-16T22:29:45;12.80;99.90
15111;DHT22;7656;51.954;7.998;2024-02-16T22:34:06;12.60;99.90
15111;DHT22;7656;51.954;7.998;2024-02-16T22:38:28;12.60;99.90
15111;DHT22;7656;51.954;7.998;2024-02-16T22:42:49;12.70;99.90
15111;DHT22;7656;51.954;7.998;2024-02-16T22:47:10;12.70;99.90
15111;DHT22;7656;51.954;7.998;2024-02-16T22:51:31;12.60;99.90
15111;DHT22;7656;51.954;7.998;2024-02-16T22:55:52;12.60;99.90
15111;DHT22;7656;51.954;7.998;2024-02-16T23:00:14;12.70;99.90
15111;DHT22;7656;51.954;7.998;2024-02-16T23:04:44;12.70;99.90
15111;DHT22;7656;51.954;7.998;2024-02-16T23:09:05;12.80;99.90
15111;DHT22;7656;51.954;7.998;2024-02-16T23:13:28;12.80;99.90
15111;DHT22;7656;51.954;7.998;2024-02-16T23:17:50;12.60;99.90
15111;DHT22;7656;51.954;7.998;2024-02-16T23:22:11;12.60;99.90
15111;DHT22;7656;51.954;7.998;2024-02-16T23:26:32;12.70;99.90
15111;DHT22;7656;51.954;7.998;2024-02-16T23:30:53;12.70;99.90
15111;DHT22;7656;51.954;7.998;2024-02-16T23:35:15;12.60;99.90
15111;DHT22;7656;51.954;7.998;2024-02-16T23:39:36;12.50;99.90
15111;DHT22;7656;51.954;7.998;2024-02-16T23:43:58;12.50;99.90
15111;DHT22;7656;51.954;7.998;2024-02-16T23:48:19;12.60;99.90
15111;DHT22;7656;51.954;7.998;2024-02-16T23:52:41;12.60;99.90
15111;DHT22;7656;51.954;7.998;2024-02-16T23:57:02;12.60;99.90
